createdAt,value
2018-03-20T00:01:17.909Z,5.63
2018-03-20T00:03:45.461Z,5.10
2018-03-20T00:06:12.994Z,5.40
2018-03-20T00:08:41.547Z,6.20
2018-03-20T00:11:09.062Z,5.00
2018-03-20T00:13:36.630Z,5.50
2018-03-20T00:16:04.161Z,4.90
2018-03-20T00:18:31.708Z,5.50
2018-03-20T00:20:59.237Z,5.60
2018-03-20T00:23:27.525Z,5.57
2018-03-20T00:25:55.833Z,6.37
2018-03-20T00:28:23.345Z,5.20
2018-03-20T00:30:51.655Z,6.33
2018-03-20T00:33:19.166Z,4.57
2018-03-20T00:35:46.713Z,6.20
2018-03-20T00:38:14.261Z,5.97
2018-03-20T00:40:41.800Z,4.57
2018-03-20T00:43:09.316Z,5.90
2018-03-20T00:45:36.857Z,5.43
2018-03-20T00:48:05.151Z,5.50
2018-03-20T00:50:32.760Z,6.10
2018-03-20T00:53:00.269Z,5.57
2018-03-20T00:55:27.806Z,5.50
2018-03-20T00:57:56.089Z,5.10
2018-03-20T01:00:24.401Z,6.00
2018-03-20T01:02:51.951Z,5.90
2018-03-20T01:05:19.488Z,6.17
2018-03-20T01:07:47.717Z,6.03
2018-03-20T01:10:15.259Z,5.20
2018-03-20T01:12:42.773Z,4.93
2018-03-20T01:15:10.309Z,6.37
2018-03-20T01:17:38.584Z,5.40
2018-03-20T01:20:06.885Z,5.37
2018-03-20T01:22:34.429Z,5.20
2018-03-20T01:25:01.949Z,5.60
2018-03-20T01:27:29.497Z,5.17
2018-03-20T01:29:57.021Z,5.77
2018-03-20T01:32:24.561Z,5.80
2018-03-20T01:34:52.076Z,5.03
2018-03-20T01:37:19.642Z,5.90
2018-03-20T01:39:47.166Z,5.87
2018-03-20T01:42:14.701Z,5.13
2018-03-20T01:44:42.208Z,5.90
2018-03-20T01:47:09.763Z,5.70
2018-03-20T01:49:37.280Z,5.33
2018-03-20T01:52:04.821Z,5.07
2018-03-20T01:54:32.328Z,5.50
2018-03-20T01:57:00.492Z,5.37
2018-03-20T01:59:28.032Z,6.00
2018-03-20T02:01:55.546Z,5.03
2018-03-20T02:04:23.082Z,5.63
2018-03-20T02:06:51.360Z,5.10
2018-03-20T02:09:19.670Z,5.07
2018-03-20T02:11:47.197Z,5.63
2018-03-20T02:14:15.539Z,5.10
2018-03-20T02:16:43.289Z,5.33
2018-03-20T02:19:10.828Z,5.13
2018-03-20T02:21:38.601Z,5.40
2018-03-20T02:24:06.901Z,5.30
2018-03-20T02:26:34.456Z,5.17
2018-03-20T02:29:01.992Z,5.53
2018-03-20T02:31:29.505Z,4.60
2018-03-20T02:33:57.040Z,5.70
2018-03-20T02:36:25.324Z,4.83
2018-03-20T02:38:53.628Z,5.10
2018-03-20T02:41:21.141Z,6.20
2018-03-20T02:43:48.653Z,5.80
2018-03-20T02:46:23.832Z,5.20
2018-03-20T02:48:51.358Z,5.17
2018-03-20T02:51:18.889Z,5.70
2018-03-20T02:53:46.403Z,5.50
2018-03-20T02:56:14.711Z,6.50
2018-03-20T02:58:42.220Z,5.77
2018-03-20T03:01:09.760Z,5.40
2018-03-20T03:03:37.313Z,6.00
2018-03-20T03:06:04.850Z,4.80
2018-03-20T03:08:32.372Z,6.00
2018-03-20T03:11:00.688Z,5.60
2018-03-20T03:13:28.196Z,6.13
2018-03-20T03:15:56.828Z,5.00
2018-03-20T03:18:24.342Z,5.50
2018-03-20T03:20:52.645Z,5.37
2018-03-20T03:23:20.167Z,6.70
2018-03-20T03:25:48.801Z,5.20
2018-03-20T03:28:16.565Z,6.13
2018-03-20T03:30:44.111Z,5.40
2018-03-20T03:33:11.636Z,5.83
2018-03-20T03:35:39.169Z,5.67
2018-03-20T03:38:07.460Z,6.20
2018-03-20T03:40:35.762Z,5.20
2018-03-20T03:43:03.279Z,5.53
2018-03-20T03:45:31.563Z,5.73
2018-03-20T03:47:59.878Z,6.00
2018-03-20T03:50:27.393Z,5.53
2018-03-20T03:52:55.694Z,5.30
2018-03-20T03:55:23.210Z,5.80
2018-03-20T03:57:51.511Z,5.40
2018-03-20T04:00:19.024Z,5.67
2018-03-20T04:02:46.564Z,6.00
2018-03-20T04:05:14.080Z,5.10
2018-03-20T04:07:41.613Z,5.93
2018-03-20T04:10:09.887Z,5.33
2018-03-20T04:12:38.189Z,5.10
2018-03-20T04:15:05.710Z,5.47
2018-03-20T04:17:34.034Z,5.17
2018-03-20T04:20:01.554Z,6.10
2018-03-20T04:22:29.857Z,5.10
2018-03-20T04:24:57.387Z,5.13
2018-03-20T04:27:25.694Z,6.23
2018-03-20T04:29:53.226Z,5.43
2018-03-20T04:32:20.761Z,5.33
2018-03-20T04:34:48.275Z,5.60
2018-03-20T04:37:15.781Z,5.70
2018-03-20T04:39:44.086Z,5.93
2018-03-20T04:42:11.597Z,5.67
2018-03-20T04:44:39.132Z,5.93
2018-03-20T04:47:06.681Z,5.30
2018-03-20T04:49:34.225Z,6.00
2018-03-20T04:52:01.741Z,6.30
2018-03-20T04:54:30.046Z,6.43
2018-03-20T04:56:57.557Z,6.07
2018-03-20T04:59:25.087Z,5.33
2018-03-20T05:01:53.360Z,5.57
2018-03-20T05:04:20.948Z,5.70
2018-03-20T05:06:49.233Z,5.17
2018-03-20T05:09:17.532Z,5.90
2018-03-20T05:11:45.050Z,6.07
2018-03-20T05:14:13.355Z,5.10
2018-03-20T05:16:40.867Z,5.50
2018-03-20T05:22:24.549Z,6.47
2018-03-20T05:24:52.850Z,5.53
2018-03-20T05:27:20.364Z,6.43
2018-03-20T05:29:48.667Z,5.40
2018-03-20T05:32:16.290Z,6.97
2018-03-20T05:34:43.825Z,5.67
2018-03-20T05:37:11.344Z,5.77
2018-03-20T05:39:38.880Z,6.03
2018-03-20T05:42:07.162Z,5.83
2018-03-20T05:44:34.704Z,5.57
2018-03-20T05:47:02.985Z,5.80
2018-03-20T05:52:30.180Z,5.37
2018-03-20T05:54:57.713Z,5.70
2018-03-20T05:57:25.284Z,5.87
2018-03-20T05:59:52.816Z,5.97
2018-03-20T06:02:21.088Z,5.60
2018-03-20T06:04:49.387Z,5.77
2018-03-20T06:07:16.898Z,5.43
2018-03-20T06:09:44.416Z,6.40
2018-03-20T06:12:11.977Z,6.03
2018-03-20T06:14:39.493Z,5.90
2018-03-20T06:17:07.056Z,5.73
2018-03-20T06:19:34.564Z,6.03
2018-03-20T06:22:02.113Z,5.97
2018-03-20T06:24:29.632Z,7.00
2018-03-20T06:26:57.173Z,7.33
2018-03-20T06:29:24.692Z,6.30
2018-03-20T06:31:52.228Z,6.23
2018-03-20T06:34:19.736Z,6.23
2018-03-20T06:36:48.041Z,5.73
2018-03-20T06:39:15.589Z,7.10
2018-03-20T06:41:43.150Z,6.83
2018-03-20T06:44:10.664Z,5.87
2018-03-20T06:46:38.210Z,6.00
2018-03-20T06:49:05.724Z,6.40
2018-03-20T06:51:33.262Z,6.60
2018-03-20T06:54:00.771Z,6.60
2018-03-20T06:56:28.313Z,5.93
2018-03-20T06:58:56.669Z,6.27
2018-03-20T07:01:24.193Z,7.40
2018-03-20T07:03:52.495Z,6.33
2018-03-20T07:06:20.008Z,6.17
2018-03-20T07:08:47.540Z,6.20
2018-03-20T07:11:15.066Z,7.50
2018-03-20T07:13:42.600Z,6.80
2018-03-20T07:16:10.116Z,5.73
2018-03-20T07:18:37.657Z,6.87
2018-03-20T07:21:05.174Z,6.90
2018-03-20T07:23:32.720Z,5.73
2018-03-20T07:26:01.010Z,6.00
2018-03-20T07:28:28.611Z,6.87
2018-03-20T07:30:56.089Z,7.40
2018-03-20T07:33:23.630Z,6.23
2018-03-20T07:35:51.152Z,6.30
2018-03-20T07:38:19.471Z,7.10
2018-03-20T07:40:46.988Z,6.93
2018-03-20T07:43:14.538Z,6.33
2018-03-20T07:45:42.045Z,7.03
2018-03-20T07:48:10.348Z,5.83
2018-03-20T07:50:37.905Z,5.30
2018-03-20T07:53:05.429Z,6.27
2018-03-20T07:55:32.961Z,5.33
2018-03-20T07:58:00.496Z,5.67
2018-03-20T08:00:28.060Z,7.00
2018-03-20T08:02:55.606Z,5.97
2018-03-20T08:05:23.166Z,5.53
2018-03-20T08:07:50.689Z,5.40
2018-03-20T08:10:18.232Z,5.40
2018-03-20T08:12:45.759Z,5.57
2018-03-20T08:15:13.293Z,5.67
2018-03-20T08:17:40.860Z,5.10
2018-03-20T08:20:08.397Z,5.77
2018-03-20T08:22:35.909Z,6.23
2018-03-20T08:25:03.452Z,6.40
2018-03-20T08:27:30.964Z,6.70
2018-03-20T08:29:58.497Z,5.83
2018-03-20T08:32:26.776Z,5.67
2018-03-20T08:34:54.317Z,6.87
2018-03-20T08:37:22.597Z,6.20
2018-03-20T08:39:50.918Z,6.50
2018-03-20T08:42:18.435Z,5.90
2018-03-20T08:44:45.988Z,6.13
2018-03-20T08:47:14.613Z,5.93
2018-03-20T08:49:42.137Z,6.23
2018-03-20T08:52:09.684Z,6.80
2018-03-20T08:54:37.200Z,6.20
2018-03-20T08:57:04.740Z,7.13
2018-03-20T08:59:32.269Z,7.10
2018-03-20T09:01:59.805Z,6.37
2018-03-20T09:04:28.080Z,8.00
2018-03-20T09:06:56.397Z,7.30
2018-03-20T09:09:23.914Z,8.20
2018-03-20T09:11:52.216Z,7.77
2018-03-20T09:14:19.745Z,7.77
2018-03-20T09:16:47.286Z,7.50
2018-03-20T09:19:14.824Z,6.90
2018-03-20T09:21:42.371Z,8.07
2018-03-20T09:24:09.885Z,7.80
2018-03-20T09:26:37.422Z,7.37
2018-03-20T09:29:04.945Z,7.77
2018-03-20T09:31:32.502Z,6.90
2018-03-20T09:34:00.054Z,7.20
2018-03-20T09:36:27.564Z,6.47
2018-03-20T09:38:55.101Z,7.60
2018-03-20T09:41:23.377Z,6.17
2018-03-20T09:43:51.722Z,6.60
2018-03-20T09:46:19.221Z,5.43
2018-03-20T09:48:46.764Z,6.43
2018-03-20T09:51:15.036Z,7.00
2018-03-20T09:53:43.337Z,7.13
2018-03-20T09:56:10.866Z,6.90
2018-03-20T09:58:39.191Z,5.97
2018-03-20T10:01:06.708Z,6.27
2018-03-20T10:03:34.241Z,6.77
2018-03-20T10:06:02.525Z,7.37
2018-03-20T10:08:30.088Z,6.20
2018-03-20T10:10:58.377Z,7.57
2018-03-20T10:13:25.931Z,7.20
2018-03-20T10:15:53.449Z,6.53
2018-03-20T10:18:21.016Z,7.20
2018-03-20T10:20:48.614Z,7.17
2018-03-20T10:23:16.890Z,7.80
2018-03-20T10:25:44.437Z,7.30
2018-03-20T10:28:11.967Z,6.40
2018-03-20T10:30:40.243Z,6.60
2018-03-20T10:33:07.808Z,6.97
2018-03-20T10:35:35.327Z,6.87
2018-03-20T10:38:02.848Z,6.50
2018-03-20T10:40:30.620Z,7.23
2018-03-20T10:42:58.135Z,6.97
2018-03-20T10:45:26.444Z,5.87
2018-03-20T10:47:53.970Z,6.53
2018-03-20T10:50:21.512Z,6.80
2018-03-20T10:52:49.784Z,5.83
2018-03-20T10:55:18.117Z,6.50
2018-03-20T10:57:46.413Z,6.87
2018-03-20T11:00:13.978Z,7.60
2018-03-20T11:02:47.172Z,7.07
2018-03-20T11:05:14.704Z,6.77
2018-03-20T11:07:42.231Z,7.20
2018-03-20T11:10:10.125Z,6.77
2018-03-20T11:12:37.653Z,8.00
2018-03-20T11:15:05.201Z,6.50
2018-03-20T11:17:32.766Z,6.50
2018-03-20T11:20:01.065Z,6.67
2018-03-20T11:22:28.573Z,5.87
2018-03-20T11:24:56.844Z,7.07
2018-03-20T11:27:25.149Z,7.57
2018-03-20T11:29:52.690Z,8.10
2018-03-20T11:32:20.969Z,6.10
2018-03-20T11:34:48.479Z,6.47
2018-03-20T11:37:16.017Z,6.90
2018-03-20T11:39:43.545Z,6.60
2018-03-20T11:42:11.083Z,9.53
2018-03-20T11:44:38.878Z,8.30
2018-03-20T11:47:06.413Z,6.73
2018-03-20T11:49:33.956Z,7.37
2018-03-20T11:52:02.245Z,7.93
2018-03-20T11:54:29.767Z,6.23
2018-03-20T11:56:58.067Z,6.50
2018-03-20T11:59:26.878Z,7.13
2018-03-20T12:01:54.452Z,6.23
2018-03-20T12:04:21.991Z,6.93
2018-03-20T12:06:49.520Z,6.20
2018-03-20T12:09:28.936Z,6.80
2018-03-20T12:11:57.254Z,6.80
2018-03-20T12:14:24.788Z,12.13
2018-03-20T12:16:52.308Z,7.33
2018-03-20T12:19:19.873Z,6.70
2018-03-20T12:21:48.153Z,6.27
2018-03-20T12:24:16.461Z,6.90
2018-03-20T12:26:43.961Z,6.43
2018-03-20T12:29:11.502Z,6.60
2018-03-20T12:31:39.132Z,6.50
2018-03-20T12:34:06.681Z,7.17
2018-03-20T12:36:34.191Z,7.13
2018-03-20T12:39:01.723Z,6.67
2018-03-20T12:41:29.257Z,7.07
2018-03-20T12:43:56.782Z,6.40
2018-03-20T12:46:24.334Z,7.40
2018-03-20T12:48:52.640Z,7.23
2018-03-20T12:51:20.153Z,7.07
2018-03-20T12:53:47.684Z,6.63
2018-03-20T12:56:15.192Z,5.90
2018-03-20T12:58:42.744Z,7.90
2018-03-20T13:01:10.261Z,7.43
2018-03-20T13:03:37.775Z,8.87
2018-03-20T13:06:05.308Z,7.80
2018-03-20T13:08:33.604Z,8.10
2018-03-20T13:11:01.152Z,8.40
2018-03-20T13:13:28.677Z,7.27
2018-03-20T13:15:56.221Z,6.73
2018-03-20T13:18:23.733Z,7.10
2018-03-20T13:20:51.399Z,7.10
2018-03-20T13:23:18.981Z,7.20
2018-03-20T13:25:46.499Z,7.67
2018-03-20T13:28:14.041Z,7.50
2018-03-20T13:30:41.584Z,7.77
2018-03-20T13:33:09.889Z,7.07
2018-03-20T13:35:37.427Z,8.17
2018-03-20T13:38:04.941Z,7.87
2018-03-20T13:40:32.484Z,6.67
2018-03-20T13:42:59.992Z,7.53
2018-03-20T13:45:28.294Z,7.17
2018-03-20T13:47:55.812Z,7.13
2018-03-20T13:50:24.129Z,6.93
2018-03-20T13:52:51.635Z,7.03
2018-03-20T13:55:19.145Z,7.27
2018-03-20T13:57:46.713Z,7.23
2018-03-20T14:00:14.229Z,7.63
2018-03-20T14:02:42.025Z,7.70
2018-03-20T14:05:09.549Z,12.40
2018-03-20T14:07:37.085Z,9.20
2018-03-20T14:10:05.360Z,9.27
2018-03-20T14:12:33.678Z,8.70
2018-03-20T14:15:01.195Z,8.33
2018-03-20T14:17:29.498Z,7.43
2018-03-20T14:19:57.037Z,7.10
2018-03-20T14:22:25.321Z,6.77
2018-03-20T14:24:52.832Z,6.60
2018-03-20T14:27:20.360Z,6.90
2018-03-20T14:29:47.869Z,6.70
2018-03-20T14:32:16.194Z,7.43
2018-03-20T14:34:43.733Z,7.97
2018-03-20T14:37:11.276Z,6.93
2018-03-20T14:39:38.794Z,6.03
2018-03-20T14:42:06.325Z,6.63
2018-03-20T14:44:33.845Z,7.10
2018-03-20T14:47:01.405Z,6.10
2018-03-20T14:49:28.916Z,5.93
2018-03-20T14:51:56.430Z,5.47
2018-03-20T14:54:23.967Z,6.03
2018-03-20T14:56:51.492Z,7.60
2018-03-20T14:59:19.796Z,6.90
2018-03-20T15:01:47.309Z,7.40
2018-03-20T15:04:15.632Z,12.43
2018-03-20T15:06:43.139Z,7.13
2018-03-20T15:09:10.708Z,8.53
2018-03-20T15:11:38.209Z,6.30
2018-03-20T15:14:05.736Z,8.60
2018-03-20T15:16:34.013Z,8.33
2018-03-20T15:19:01.549Z,7.30
2018-03-20T15:21:29.060Z,5.80
2018-03-20T15:23:56.592Z,6.00
2018-03-20T15:26:24.105Z,7.80
2018-03-20T15:28:52.421Z,6.43
2018-03-20T15:31:19.937Z,5.93
2018-03-20T15:33:47.477Z,5.67
2018-03-20T15:36:14.993Z,7.10
2018-03-20T15:38:42.524Z,5.50
2018-03-20T15:41:10.797Z,5.27
2018-03-20T15:43:39.088Z,5.67
2018-03-20T15:46:06.590Z,4.83
2018-03-20T15:48:34.128Z,5.00
2018-03-20T15:51:01.642Z,6.70
2018-03-20T15:53:29.917Z,8.60
2018-03-20T15:55:58.223Z,6.10
2018-03-20T15:58:25.729Z,6.13
2018-03-20T16:00:53.256Z,6.00
2018-03-20T16:03:20.761Z,6.00
2018-03-20T16:05:49.065Z,5.80
2018-03-20T16:08:16.564Z,6.37
2018-03-20T16:10:44.876Z,5.20
2018-03-20T16:13:12.381Z,5.83
2018-03-20T16:15:39.926Z,5.63
2018-03-20T16:18:07.441Z,10.77
2018-03-20T16:20:34.981Z,9.60
2018-03-20T16:23:03.263Z,14.53
2018-03-20T16:25:31.566Z,12.10
2018-03-20T16:27:59.071Z,7.30
2018-03-20T16:30:26.606Z,7.30
2018-03-20T16:32:54.150Z,15.60
2018-03-20T16:35:21.753Z,8.10
2018-03-20T16:37:49.265Z,6.60
2018-03-20T16:40:16.812Z,6.43
2018-03-20T16:42:44.351Z,6.57
2018-03-20T16:45:11.852Z,7.63
2018-03-20T16:47:39.376Z,7.90
2018-03-20T16:50:06.881Z,8.67
2018-03-20T16:52:34.644Z,8.03
2018-03-20T16:55:02.160Z,8.60
2018-03-20T16:57:29.717Z,8.90
2018-03-20T16:59:57.249Z,6.67
2018-03-20T17:02:25.061Z,6.50
2018-03-20T17:04:52.620Z,6.80
2018-03-20T17:07:20.138Z,6.90
2018-03-20T17:09:47.644Z,8.00
2018-03-20T17:12:15.176Z,22.07
2018-03-20T17:14:42.685Z,9.37
2018-03-20T17:17:10.211Z,7.60
2018-03-20T17:19:37.732Z,7.70
2018-03-20T17:22:05.285Z,7.47
2018-03-20T17:24:32.797Z,7.57
2018-03-20T17:27:01.121Z,7.80
2018-03-20T17:29:29.404Z,7.20
2018-03-20T17:31:56.913Z,7.40
2018-03-20T17:34:24.457Z,7.63
2018-03-20T17:36:52.814Z,7.53
2018-03-20T17:39:20.311Z,17.20
2018-03-20T17:41:47.843Z,12.17
2018-03-20T17:44:16.137Z,9.60
2018-03-20T17:46:43.660Z,8.77
2018-03-20T17:49:11.199Z,7.70
2018-03-20T17:51:38.737Z,8.43
2018-03-20T17:54:06.256Z,7.33
2018-03-20T17:56:33.772Z,9.20
2018-03-20T17:59:01.314Z,11.27
2018-03-20T18:01:28.817Z,7.70
2018-03-20T18:03:57.122Z,7.90
2018-03-20T18:06:24.633Z,9.23
2018-03-20T18:08:52.928Z,8.80
2018-03-20T18:11:20.431Z,10.23
2018-03-20T18:13:47.980Z,11.40
2018-03-20T18:16:15.497Z,10.30
2018-03-20T18:18:43.008Z,10.43
2018-03-20T18:21:10.561Z,10.83
2018-03-20T18:23:38.075Z,10.50
2018-03-20T18:26:05.608Z,9.43
2018-03-20T18:28:33.897Z,10.90
2018-03-20T18:31:01.433Z,10.80
2018-03-20T18:33:29.720Z,14.07
2018-03-20T18:35:57.262Z,15.40
2018-03-20T18:38:25.597Z,15.67
2018-03-20T18:40:53.134Z,13.40
2018-03-20T18:43:20.649Z,10.47
2018-03-20T18:45:48.953Z,9.93
2018-03-20T18:48:16.637Z,9.00
2018-03-20T18:50:44.206Z,8.50
2018-03-20T18:53:11.725Z,8.20
2018-03-20T18:55:39.264Z,7.67
2018-03-20T18:58:06.777Z,6.27
2018-03-20T19:00:34.313Z,8.90
2018-03-20T19:03:01.861Z,7.30
2018-03-20T19:05:29.382Z,7.67
2018-03-20T19:07:56.932Z,7.17
2018-03-20T19:10:25.218Z,8.73
2018-03-20T19:12:52.777Z,7.80
2018-03-20T19:15:21.060Z,8.50
2018-03-20T19:17:48.598Z,9.30
2018-03-20T19:20:16.124Z,9.73
2018-03-20T19:22:43.676Z,10.93
2018-03-20T19:25:11.212Z,9.80
2018-03-20T19:27:38.752Z,10.33
2018-03-20T19:30:06.265Z,9.30
2018-03-20T19:32:33.800Z,9.00
2018-03-20T19:35:01.324Z,8.80
2018-03-20T19:37:28.868Z,9.20
2018-03-20T19:39:56.384Z,10.37
2018-03-20T19:42:23.932Z,10.60
2018-03-20T19:44:51.452Z,11.57
2018-03-20T19:47:19.028Z,10.93
2018-03-20T19:49:46.538Z,11.20
2018-03-20T19:52:14.060Z,10.57
2018-03-20T19:54:41.597Z,11.73
2018-03-20T19:57:09.112Z,15.20
2018-03-20T19:59:36.698Z,13.50
2018-03-20T20:02:04.209Z,12.00
2018-03-20T20:04:32.512Z,10.63
2018-03-20T20:07:00.031Z,11.13
2018-03-20T20:09:28.340Z,11.07
2018-03-20T20:11:55.857Z,12.47
2018-03-20T20:14:23.416Z,15.53
2018-03-20T20:16:50.960Z,15.47
2018-03-20T20:19:18.499Z,13.67
2018-03-20T20:21:46.032Z,12.30
2018-03-20T20:24:13.572Z,13.30
2018-03-20T20:26:41.093Z,12.13
2018-03-20T20:29:09.433Z,14.50
2018-03-20T20:31:37.718Z,13.50
2018-03-20T20:34:05.263Z,16.33
2018-03-20T20:36:32.785Z,16.10
2018-03-20T20:39:00.580Z,15.50
2018-03-20T20:41:28.147Z,16.73
2018-03-20T20:43:55.726Z,16.83
2018-03-20T20:46:23.265Z,15.20
2018-03-20T20:48:51.557Z,14.73
2018-03-20T20:51:19.110Z,11.60
2018-03-20T20:53:46.632Z,13.00
2018-03-20T20:56:14.172Z,10.53
2018-03-20T20:58:41.702Z,11.77
2018-03-20T21:01:10.017Z,11.10
2018-03-20T21:03:37.533Z,10.03
2018-03-20T21:06:05.837Z,10.93
2018-03-20T21:08:33.407Z,10.63
2018-03-20T21:11:00.965Z,10.80
2018-03-20T21:13:28.484Z,11.93
2018-03-20T21:15:56.033Z,12.20
2018-03-20T21:18:24.324Z,12.17
2018-03-20T21:20:51.845Z,12.40
2018-03-20T21:23:19.393Z,11.57
2018-03-20T21:25:46.908Z,11.23
2018-03-20T21:28:14.448Z,12.90
2018-03-20T21:30:41.963Z,11.90
2018-03-20T21:33:09.553Z,11.50
2018-03-20T21:35:37.046Z,11.60
2018-03-20T21:38:04.587Z,12.63
2018-03-20T21:40:32.110Z,12.70
2018-03-20T21:42:59.680Z,13.10
2018-03-20T21:45:27.206Z,15.13
2018-03-20T21:47:54.780Z,17.53
2018-03-20T21:50:23.072Z,16.50
2018-03-20T21:52:50.615Z,17.53
2018-03-20T21:55:18.903Z,16.73
2018-03-20T21:57:46.442Z,15.90
2018-03-20T22:00:14.732Z,16.00
2018-03-20T22:02:42.285Z,15.10
2018-03-20T22:05:09.802Z,14.40
2018-03-20T22:07:38.112Z,14.73
2018-03-20T22:10:05.649Z,15.10
2018-03-20T22:12:33.996Z,13.60
2018-03-20T22:15:01.550Z,14.20
2018-03-20T22:17:29.071Z,13.87
2018-03-20T22:19:56.619Z,15.50
2018-03-20T22:22:24.161Z,16.20
2018-03-20T22:24:52.469Z,17.23
2018-03-20T22:27:20.001Z,15.60
2018-03-20T22:29:47.541Z,14.67
2018-03-20T22:32:16.279Z,13.70
2018-03-20T22:34:43.817Z,16.17
2018-03-20T22:37:11.352Z,14.60
2018-03-20T22:39:38.909Z,15.50
2018-03-20T22:42:06.425Z,14.93
2018-03-20T22:44:33.992Z,15.90
2018-03-20T22:47:01.542Z,14.90
2018-03-20T22:49:29.097Z,14.83
2018-03-20T22:51:56.619Z,15.77
2018-03-20T22:54:24.167Z,16.03
2018-03-20T22:56:51.697Z,17.40
2018-03-20T22:59:20.017Z,20.10
2018-03-20T23:01:47.529Z,17.77
2018-03-20T23:04:15.833Z,16.50
2018-03-20T23:06:43.372Z,16.50
2018-03-20T23:09:10.884Z,15.27
2018-03-20T23:11:38.428Z,15.00
2018-03-20T23:14:05.942Z,14.63
2018-03-20T23:16:33.517Z,14.37
2018-03-20T23:19:01.019Z,16.10
2018-03-20T23:21:28.559Z,16.07
2018-03-20T23:23:56.404Z,14.63
2018-03-20T23:26:23.956Z,14.70
2018-03-20T23:28:51.480Z,14.50
2018-03-20T23:31:19.024Z,13.37
2018-03-20T23:33:47.304Z,13.30
2018-03-20T23:36:15.616Z,12.00
2018-03-20T23:38:43.136Z,13.00
2018-03-20T23:41:10.941Z,11.80
2018-03-20T23:43:38.462Z,10.87
2018-03-20T23:46:05.995Z,10.30
2018-03-20T23:48:34.313Z,10.10
2018-03-20T23:51:01.864Z,10.80
2018-03-20T23:53:29.384Z,11.50
2018-03-20T23:55:57.668Z,12.00
2018-03-20T23:58:25.983Z,11.17
